sensor_id;sensor_type;location;lat;lon;timestamp;pressure;altitude;pressure_sealevel;temperature;humidity
12349;BME280;5974;42.710;27.258;2023-07-30T00:02:21;99873.47;;;19.75;100.00
12349;BME280;5974;42.710;27.258;2023-07-30T00:04:48;99873.47;;;19.75;100.00
12349;BME280;5974;42.710;27.258;2023-07-30T00:07:15;99879.59;;;19.76;100.00
12349;BME280;5974;42.710;27.258;2023-07-30T00:09:42;99876.25;;;19.74;100.00
12349;BME280;5974;42.710;27.258;2023-07-30T00:12:09;99858.13;;;19.47;100.00
12349;BME280;5974;42.710;27.258;2023-07-30T00:14:37;99867.50;;;19.62;100.00
12349;BME280;5974;42.710;27.258;2023-07-30T00:17:04;99877.28;;;19.51;100.00
12349;BME280;5974;42.710;27.258;2023-07-30T00:19:31;99840.44;;;19.14;100.00
12349;BME280;5974;42.710;27.258;2023-07-30T00:21:58;99875.72;;;19.26;100.00
12349;BME280;5974;42.710;27.258;2023-07-30T00:24:25;99878.75;;;19.21;100.00
12349;BME280;5974;42.710;27.258;2023-07-30T00:26:52;99883.00;;;19.13;100.00
12349;BME280;5974;42.710;27.258;2023-07-30T00:29:19;99884.09;;;19.10;100.00
12349;BME280;5974;42.710;27.258;2023-07-30T00:31:47;99883.34;;;19.08;100.00
12349;BME280;5974;42.710;27.258;2023-07-30T00:34:14;99885.88;;;19.10;100.00
12349;BME280;5974;42.710;27.258;2023-07-30T00:36:41;99873.94;;;19.15;100.00
12349;BME280;5974;42.710;27.258;2023-07-30T00:39:08;99876.13;;;19.10;100.00
12349;BME280;5974;42.710;27.258;2023-07-30T00:41:36;99879.59;;;19.11;100.00
12349;BME280;5974;42.710;27.258;2023-07-30T00:44:02;99880.31;;;19.02;100.00
12349;BME280;5974;42.710;27.258;2023-07-30T00:46:30;99886.84;;;19.09;100.00
12349;BME280;5974;42.710;27.258;2023-07-30T00:48:59;99881.06;;;19.04;100.00
12349;BME280;5974;42.710;27.258;2023-07-30T00:51:26;99875.28;;;18.87;100.00
12349;BME280;5974;42.710;27.258;2023-07-30T00:53:54;99872.50;;;18.78;100.00
12349;BME280;5974;42.710;27.258;2023-07-30T00:56:21;99873.00;;;18.72;100.00
12349;BME280;5974;42.710;27.258;2023-07-30T00:58:48;99876.84;;;18.68;100.00
12349;BME280;5974;42.710;27.258;2023-07-30T01:01:16;99876.50;;;18.72;100.00
12349;BME280;5974;42.710;27.258;2023-07-30T01:03:42;99874.56;;;18.74;100.00
12349;BME280;5974;42.710;27.258;2023-07-30T01:06:11;99849.34;;;18.47;100.00
12349;BME280;5974;42.710;27.258;2023-07-30T01:08:38;99870.44;;;18.59;100.00
12349;BME280;5974;42.710;27.258;2023-07-30T01:11:05;99809.25;;;18.29;100.00
12349;BME280;5974;42.710;27.258;2023-07-30T01:13:33;99878.63;;;18.67;100.00
12349;BME280;5974;42.710;27.258;2023-07-30T01:16:00;99875.03;;;18.57;100.00
12349;BME280;5974;42.710;27.258;2023-07-30T01:18:28;99867.31;;;18.54;100.00
12349;BME280;5974;42.710;27.258;2023-07-30T01:20:59;99870.69;;;18.67;100.00
12349;BME280;5974;42.710;27.258;2023-07-30T01:23:26;99865.75;;;18.63;100.00
12349;BME280;5974;42.710;27.258;2023-07-30T01:26:04;99863.84;;;18.54;100.00
12349;BME280;5974;42.710;27.258;2023-07-30T01:28:37;99861.78;;;18.57;100.00
12349;BME280;5974;42.710;27.258;2023-07-30T01:31:06;99816.81;;;18.11;100.00
12349;BME280;5974;42.710;27.258;2023-07-30T01:33:34;99866.06;;;18.47;100.00
12349;BME280;5974;42.710;27.258;2023-07-30T01:36:03;99858.13;;;18.47;100.00
12349;BME280;5974;42.710;27.258;2023-07-30T01:38:31;99861.34;;;18.28;100.00
12349;BME280;5974;42.710;27.258;2023-07-30T01:40:58;99862.50;;;18.13;100.00
12349;BME280;5974;42.710;27.258;2023-07-30T01:43:25;99865.94;;;18.03;100.00
12349;BME280;5974;42.710;27.258;2023-07-30T01:45:52;99861.66;;;18.13;100.00
12349;BME280;5974;42.710;27.258;2023-07-30T01:48:19;99853.09;;;18.09;100.00
12349;BME280;5974;42.710;27.258;2023-07-30T01:50:46;99866.22;;;18.11;100.00
12349;BME280;5974;42.710;27.258;2023-07-30T01:53:15;99863.31;;;18.03;100.00
12349;BME280;5974;42.710;27.258;2023-07-30T01:55:42;99857.13;;;18.15;100.00
12349;BME280;5974;42.710;27.258;2023-07-30T01:58:11;99856.66;;;18.21;100.00
12349;BME280;5974;42.710;27.258;2023-07-30T02:00:38;99857.69;;;18.07;100.00
12349;BME280;5974;42.710;27.258;2023-07-30T02:03:05;99853.56;;;18.03;100.00
12349;BME280;5974;42.710;27.258;2023-07-30T02:05:33;99858.16;;;18.01;100.00
12349;BME280;5974;42.710;27.258;2023-07-30T02:08:00;99848.31;;;18.14;100.00
12349;BME280;5974;42.710;27.258;2023-07-30T02:10:28;99855.19;;;18.17;100.00
12349;BME280;5974;42.710;27.258;2023-07-30T02:12:55;99857.34;;;18.12;100.00
12349;BME280;5974;42.710;27.258;2023-07-30T02:15:22;99859.06;;;17.89;100.00
12349;BME280;5974;42.710;27.258;2023-07-30T02:17:49;99862.09;;;17.96;100.00
12349;BME280;5974;42.710;27.258;2023-07-30T02:20:15;99857.69;;;18.07;100.00
12349;BME280;5974;42.710;27.258;2023-07-30T02:22:42;99867.53;;;18.05;100.00
12349;BME280;5974;42.710;27.258;2023-07-30T02:25:09;99854.63;;;17.90;100.00
12349;BME280;5974;42.710;27.258;2023-07-30T02:27:37;99868.16;;;18.09;100.00
12349;BME280;5974;42.710;27.258;2023-07-30T02:30:06;99862.41;;;18.15;100.00
12349;BME280;5974;42.710;27.258;2023-07-30T02:32:33;99863.44;;;18.01;100.00
12349;BME280;5974;42.710;27.258;2023-07-30T02:34:59;99874.97;;;18.00;100.00
12349;BME280;5974;42.710;27.258;2023-07-30T02:37:26;99870.28;;;18.04;100.00
12349;BME280;5974;42.710;27.258;2023-07-30T02:39:53;99859.44;;;17.96;100.00
12349;BME280;5974;42.710;27.258;2023-07-30T02:42:20;99859.59;;;18.05;100.00
12349;BME280;5974;42.710;27.258;2023-07-30T02:44:48;99870.50;;;17.90;100.00
12349;BME280;5974;42.710;27.258;2023-07-30T02:47:15;99868.09;;;17.86;100.00
12349;BME280;5974;42.710;27.258;2023-07-30T02:49:42;99869.97;;;17.84;100.00
12349;BME280;5974;42.710;27.258;2023-07-30T02:52:09;99870.72;;;17.86;100.00
12349;BME280;5974;42.710;27.258;2023-07-30T02:54:36;99871.94;;;17.94;100.00
12349;BME280;5974;42.710;27.258;2023-07-30T02:57:03;99855.09;;;17.83;100.00
12349;BME280;5974;42.710;27.258;2023-07-30T02:59:30;99875.47;;;18.05;100.00
12349;BME280;5974;42.710;27.258;2023-07-30T03:02:03;99806.44;;;17.62;100.00
12349;BME280;5974;42.710;27.258;2023-07-30T03:04:30;99873.88;;;18.03;100.00
12349;BME280;5974;42.710;27.258;2023-07-30T03:06:57;99869.81;;;17.99;100.00
12349;BME280;5974;42.710;27.258;2023-07-30T03:09:24;99872.47;;;18.10;100.00
12349;BME280;5974;42.710;27.258;2023-07-30T03:11:52;99882.22;;;18.09;100.00
12349;BME280;5974;42.710;27.258;2023-07-30T03:14:19;99870.34;;;18.15;100.00
12349;BME280;5974;42.710;27.258;2023-07-30T03:16:46;99864.44;;;18.11;100.00
12349;BME280;5974;42.710;27.258;2023-07-30T03:19:15;99883.06;;;18.10;100.00
12349;BME280;5974;42.710;27.258;2023-07-30T03:21:42;99883.19;;;18.08;100.00
12349;BME280;5974;42.710;27.258;2023-07-30T03:24:09;99869.25;;;18.17;100.00
12349;BME280;5974;42.710;27.258;2023-07-30T03:26:36;99878.38;;;18.13;100.00
12349;BME280;5974;42.710;27.258;2023-07-30T03:29:02;99879.72;;;18.19;100.00
12349;BME280;5974;42.710;27.258;2023-07-30T03:31:29;99876.59;;;18.25;100.00
12349;BME280;5974;42.710;27.258;2023-07-30T03:33:57;99864.34;;;18.24;100.00
12349;BME280;5974;42.710;27.258;2023-07-30T03:36:25;99865.78;;;18.28;100.00
12349;BME280;5974;42.710;27.258;2023-07-30T03:38:52;99826.16;;;18.04;100.00
12349;BME280;5974;42.710;27.258;2023-07-30T03:41:19;99861.97;;;18.32;100.00
12349;BME280;5974;42.710;27.258;2023-07-30T03:43:46;99872.75;;;18.64;100.00
12349;BME280;5974;42.710;27.258;2023-07-30T03:46:13;99868.41;;;18.74;100.00
12349;BME280;5974;42.710;27.258;2023-07-30T03:48:39;99821.22;;;18.68;100.00
12349;BME280;5974;42.710;27.258;2023-07-30T03:51:07;99861.28;;;19.08;100.00
12349;BME280;5974;42.710;27.258;2023-07-30T03:53:35;99862.13;;;19.19;100.00
12349;BME280;5974;42.710;27.258;2023-07-30T03:56:02;99860.44;;;19.18;100.00
12349;BME280;5974;42.710;27.258;2023-07-30T03:58:29;99860.44;;;19.40;100.00
12349;BME280;5974;42.710;27.258;2023-07-30T04:00:56;99843.19;;;19.46;100.00
12349;BME280;5974;42.710;27.258;2023-07-30T04:03:23;99862.50;;;19.69;100.00
12349;BME280;5974;42.710;27.258;2023-07-30T04:05:50;99856.41;;;19.89;100.00
12349;BME280;5974;42.710;27.258;2023-07-30T04:08:17;99860.09;;;20.18;100.00
12349;BME280;5974;42.710;27.258;2023-07-30T04:10:45;99861.81;;;20.19;100.00
12349;BME280;5974;42.710;27.258;2023-07-30T04:13:12;99862.22;;;20.35;100.00
12349;BME280;5974;42.710;27.258;2023-07-30T04:15:39;99863.25;;;20.44;100.00
12349;BME280;5974;42.710;27.258;2023-07-30T04:18:06;99841.03;;;21.93;100.00
12349;BME280;5974;42.710;27.258;2023-07-30T04:20:33;99844.16;;;24.86;100.00
12349;BME280;5974;42.710;27.258;2023-07-30T04:22:59;99843.41;;;28.64;100.00
12349;BME280;5974;42.710;27.258;2023-07-30T04:25:26;99835.75;;;31.62;78.52
12349;BME280;5974;42.710;27.258;2023-07-30T04:27:55;99841.25;;;32.21;67.31
12349;BME280;5974;42.710;27.258;2023-07-30T04:30:21;99846.91;;;33.30;62.88
12349;BME280;5974;42.710;27.258;2023-07-30T04:32:48;99850.16;;;34.89;58.53
12349;BME280;5974;42.710;27.258;2023-07-30T04:35:15;99852.41;;;36.17;52.28
12349;BME280;5974;42.710;27.258;2023-07-30T04:37:42;99825.38;;;33.79;54.96
12349;BME280;5974;42.710;27.258;2023-07-30T04:40:10;99855.19;;;32.58;58.14
12349;BME280;5974;42.710;27.258;2023-07-30T04:42:37;99858.88;;;32.96;56.92
12349;BME280;5974;42.710;27.258;2023-07-30T04:45:06;99852.28;;;32.40;58.62
12349;BME280;5974;42.710;27.258;2023-07-30T04:47:33;99830.09;;;33.53;55.40
12349;BME280;5974;42.710;27.258;2023-07-30T04:50:00;99860.81;;;32.37;56.40
12349;BME280;5974;42.710;27.258;2023-07-30T04:52:27;99872.41;;;33.03;56.17
12349;BME280;5974;42.710;27.258;2023-07-30T04:54:54;99875.34;;;33.59;53.96
12349;BME280;5974;42.710;27.258;2023-07-30T04:57:20;99880.97;;;33.13;54.16
12349;BME280;5974;42.710;27.258;2023-07-30T04:59:47;99868.16;;;34.58;52.69
12349;BME280;5974;42.710;27.258;2023-07-30T05:02:16;99870.19;;;34.20;51.92
12349;BME280;5974;42.710;27.258;2023-07-30T05:04:42;99880.31;;;34.00;51.24
12349;BME280;5974;42.710;27.258;2023-07-30T05:07:09;99876.47;;;34.45;51.01
12349;BME280;5974;42.710;27.258;2023-07-30T05:09:36;99882.44;;;34.97;50.16
12349;BME280;5974;42.710;27.258;2023-07-30T05:12:04;99872.88;;;36.08;48.64
12349;BME280;5974;42.710;27.258;2023-07-30T05:14:31;99880.78;;;36.74;47.77
12349;BME280;5974;42.710;27.258;2023-07-30T05:16:58;99878.31;;;36.73;47.10
12349;BME280;5974;42.710;27.258;2023-07-30T05:19:26;99879.84;;;35.74;47.79
12349;BME280;5974;42.710;27.258;2023-07-30T05:21:53;99884.38;;;36.33;46.70
12349;BME280;5974;42.710;27.258;2023-07-30T05:24:19;99886.97;;;36.05;47.02
12349;BME280;5974;42.710;27.258;2023-07-30T05:26:46;99901.81;;;36.21;46.20
12349;BME280;5974;42.710;27.258;2023-07-30T05:29:13;99892.34;;;35.46;47.00
12349;BME280;5974;42.710;27.258;2023-07-30T05:31:40;99891.81;;;36.56;46.18
12349;BME280;5974;42.710;27.258;2023-07-30T05:34:07;99893.00;;;37.58;44.50
12349;BME280;5974;42.710;27.258;2023-07-30T05:36:35;99895.16;;;38.29;42.92
12349;BME280;5974;42.710;27.258;2023-07-30T05:39:02;99893.22;;;39.18;41.43
12349;BME280;5974;42.710;27.258;2023-07-30T05:41:29;99896.63;;;38.70;41.84
12349;BME280;5974;42.710;27.258;2023-07-30T05:43:56;99896.69;;;39.52;41.18
12349;BME280;5974;42.710;27.258;2023-07-30T05:46:23;99886.09;;;39.82;39.62
12349;BME280;5974;42.710;27.258;2023-07-30T05:48:50;99886.63;;;40.75;38.27
12349;BME280;5974;42.710;27.258;2023-07-30T05:51:16;99887.53;;;40.48;38.10
12349;BME280;5974;42.710;27.258;2023-07-30T05:53:45;99884.31;;;40.56;37.89
12349;BME280;5974;42.710;27.258;2023-07-30T05:56:11;99884.13;;;40.04;38.77
12349;BME280;5974;42.710;27.258;2023-07-30T05:58:39;99897.47;;;41.53;37.09
12349;BME280;5974;42.710;27.258;2023-07-30T06:01:06;99895.81;;;40.53;37.19
12349;BME280;5974;42.710;27.258;2023-07-30T06:03:33;99893.06;;;41.37;36.50
12349;BME280;5974;42.710;27.258;2023-07-30T06:06:01;99894.31;;;40.09;36.99
12349;BME280;5974;42.710;27.258;2023-07-30T06:08:28;99891.78;;;41.08;35.84
12349;BME280;5974;42.710;27.258;2023-07-30T06:11:00;99891.34;;;40.84;35.76
12349;BME280;5974;42.710;27.258;2023-07-30T06:13:28;99888.41;;;39.95;36.09
12349;BME280;5974;42.710;27.258;2023-07-30T06:15:55;99884.09;;;40.31;36.01
12349;BME280;5974;42.710;27.258;2023-07-30T06:18:22;99879.44;;;39.73;35.74
12349;BME280;5974;42.710;27.258;2023-07-30T06:20:49;99880.72;;;39.44;36.12
12349;BME280;5974;42.710;27.258;2023-07-30T06:23:16;99877.00;;;39.12;36.30
12349;BME280;5974;42.710;27.258;2023-07-30T06:25:42;99875.13;;;39.34;36.46
12349;BME280;5974;42.710;27.258;2023-07-30T06:28:11;99883.63;;;42.26;32.46
12349;BME280;5974;42.710;27.258;2023-07-30T06:30:38;99880.69;;;40.88;33.85
12349;BME280;5974;42.710;27.258;2023-07-30T06:33:05;99872.88;;;41.17;34.04
12349;BME280;5974;42.710;27.258;2023-07-30T06:35:32;99890.59;;;41.51;33.85
12349;BME280;5974;42.710;27.258;2023-07-30T06:37:59;99855.91;;;40.78;34.20
12349;BME280;5974;42.710;27.258;2023-07-30T06:40:27;99860.44;;;41.66;33.26
12349;BME280;5974;42.710;27.258;2023-07-30T06:42:53;99868.78;;;42.32;32.89
12349;BME280;5974;42.710;27.258;2023-07-30T06:45:22;99866.00;;;41.91;32.22
12349;BME280;5974;42.710;27.258;2023-07-30T06:47:49;99865.19;;;40.67;33.62
12349;BME280;5974;42.710;27.258;2023-07-30T06:50:16;99865.78;;;42.23;33.84
12349;BME280;5974;42.710;27.258;2023-07-30T06:52:42;99868.75;;;42.01;33.43
12349;BME280;5974;42.710;27.258;2023-07-30T06:55:09;99867.53;;;41.47;32.24
12349;BME280;5974;42.710;27.258;2023-07-30T06:57:36;99858.47;;;40.16;34.84
12349;BME280;5974;42.710;27.258;2023-07-30T07:00:03;99855.47;;;38.98;33.96
12349;BME280;5974;42.710;27.258;2023-07-30T07:02:32;99852.00;;;40.00;33.43
12349;BME280;5974;42.710;27.258;2023-07-30T07:04:59;99852.59;;;40.02;33.25
12349;BME280;5974;42.710;27.258;2023-07-30T07:07:26;99857.25;;;37.20;33.99
12349;BME280;5974;42.710;27.258;2023-07-30T07:09:53;99840.63;;;39.33;32.66
12349;BME280;5974;42.710;27.258;2023-07-30T07:12:20;99846.38;;;38.93;32.10
12349;BME280;5974;42.710;27.258;2023-07-30T07:14:47;99849.16;;;39.63;31.46
12349;BME280;5974;42.710;27.258;2023-07-30T07:17:13;99847.44;;;40.79;30.44
12349;BME280;5974;42.710;27.258;2023-07-30T07:19:42;99842.97;;;41.15;28.70
12349;BME280;5974;42.710;27.258;2023-07-30T07:22:08;99845.88;;;39.18;30.93
12349;BME280;5974;42.710;27.258;2023-07-30T07:24:35;99852.34;;;40.77;30.51
12349;BME280;5974;42.710;27.258;2023-07-30T07:27:02;99849.50;;;41.76;30.63
12349;BME280;5974;42.710;27.258;2023-07-30T07:29:29;99849.72;;;43.55;28.12
12349;BME280;5974;42.710;27.258;2023-07-30T07:31:56;99845.56;;;42.93;28.11
12349;BME280;5974;42.710;27.258;2023-07-30T07:34:23;99846.97;;;43.55;26.74
12349;BME280;5974;42.710;27.258;2023-07-30T07:36:51;99852.53;;;42.50;26.91
12349;BME280;5974;42.710;27.258;2023-07-30T07:39:19;99849.19;;;42.79;27.01
12349;BME280;5974;42.710;27.258;2023-07-30T07:41:46;99841.09;;;45.76;25.00
12349;BME280;5974;42.710;27.258;2023-07-30T07:44:13;99847.94;;;43.74;27.22
12349;BME280;5974;42.710;27.258;2023-07-30T07:46:40;99818.06;;;43.91;27.66
12349;BME280;5974;42.710;27.258;2023-07-30T07:49:07;99846.44;;;43.53;28.23
12349;BME280;5974;42.710;27.258;2023-07-30T07:51:34;99830.59;;;43.25;30.24
12349;BME280;5974;42.710;27.258;2023-07-30T07:54:03;99809.13;;;40.99;31.98
12349;BME280;5974;42.710;27.258;2023-07-30T07:56:30;99825.00;;;42.76;29.00
12349;BME280;5974;42.710;27.258;2023-07-30T07:58:57;99836.03;;;42.00;30.75
12349;BME280;5974;42.710;27.258;2023-07-30T08:01:24;99792.75;;;38.92;32.99
12349;BME280;5974;42.710;27.258;2023-07-30T08:03:50;99827.41;;;37.02;35.50
12349;BME280;5974;42.710;27.258;2023-07-30T08:06:17;99812.63;;;36.51;36.67
12349;BME280;5974;42.710;27.258;2023-07-30T08:08:44;99815.34;;;36.05;38.67
12349;BME280;5974;42.710;27.258;2023-07-30T08:11:12;99791.91;;;34.17;40.33
12349;BME280;5974;42.710;27.258;2023-07-30T08:13:39;99816.41;;;35.62;37.13
12349;BME280;5974;42.710;27.258;2023-07-30T08:16:06;99814.25;;;35.16;39.01
12349;BME280;5974;42.710;27.258;2023-07-30T08:18:33;99793.59;;;34.36;40.32
12349;BME280;5974;42.710;27.258;2023-07-30T08:21:00;99807.75;;;33.89;41.73
12349;BME280;5974;42.710;27.258;2023-07-30T08:23:27;99820.34;;;33.39;40.61
12349;BME280;5974;42.710;27.258;2023-07-30T08:25:54;99804.25;;;34.56;40.20
12349;BME280;5974;42.710;27.258;2023-07-30T08:28:22;99808.47;;;34.52;40.01
12349;BME280;5974;42.710;27.258;2023-07-30T08:30:49;99798.94;;;33.68;41.21
12349;BME280;5974;42.710;27.258;2023-07-30T08:33:16;99789.63;;;34.57;40.12
12349;BME280;5974;42.710;27.258;2023-07-30T08:35:42;99792.38;;;33.83;41.81
12349;BME280;5974;42.710;27.258;2023-07-30T08:38:09;99790.06;;;34.11;41.62
12349;BME280;5974;42.710;27.258;2023-07-30T08:40:36;99784.16;;;33.64;40.95
12349;BME280;5974;42.710;27.258;2023-07-30T08:43:03;99785.00;;;33.90;42.83
12349;BME280;5974;42.710;27.258;2023-07-30T08:45:32;99776.59;;;33.98;40.58
12349;BME280;5974;42.710;27.258;2023-07-30T08:47:59;99777.66;;;34.40;41.90
12349;BME280;5974;42.710;27.258;2023-07-30T08:50:27;99779.16;;;34.17;43.18
12349;BME280;5974;42.710;27.258;2023-07-30T08:52:55;99776.03;;;34.39;40.92
12349;BME280;5974;42.710;27.258;2023-07-30T08:55:22;99776.38;;;33.99;40.89
12349;BME280;5974;42.710;27.258;2023-07-30T08:57:50;99768.97;;;34.74;39.92
12349;BME280;5974;42.710;27.258;2023-07-30T09:00:19;99775.81;;;34.58;41.31
12349;BME280;5974;42.710;27.258;2023-07-30T09:02:50;99767.97;;;34.87;40.72
12349;BME280;5974;42.710;27.258;2023-07-30T09:05:18;99764.59;;;34.91;40.29
12349;BME280;5974;42.710;27.258;2023-07-30T09:07:45;99768.22;;;34.85;41.40
12349;BME280;5974;42.710;27.258;2023-07-30T09:10:12;99762.81;;;33.99;41.34
12349;BME280;5974;42.710;27.258;2023-07-30T09:12:40;99755.94;;;33.34;41.56
12349;BME280;5974;42.710;27.258;2023-07-30T09:15:08;99762.81;;;33.74;41.97
12349;BME280;5974;42.710;27.258;2023-07-30T09:17:35;99754.38;;;34.32;42.83
12349;BME280;5974;42.710;27.258;2023-07-30T09:20:04;99750.16;;;33.62;41.81
12349;BME280;5974;42.710;27.258;2023-07-30T09:22:33;99750.44;;;34.28;42.00
12349;BME280;5974;42.710;27.258;2023-07-30T09:25:02;99743.97;;;34.04;41.18
12349;BME280;5974;42.710;27.258;2023-07-30T09:27:31;99743.31;;;33.59;41.43
12349;BME280;5974;42.710;27.258;2023-07-30T09:30:00;99752.31;;;33.15;42.35
12349;BME280;5974;42.710;27.258;2023-07-30T09:32:28;99749.22;;;32.99;43.68
12349;BME280;5974;42.710;27.258;2023-07-30T09:34:55;99744.31;;;33.58;43.58
12349;BME280;5974;42.710;27.258;2023-07-30T09:37:23;99746.53;;;33.74;42.15
12349;BME280;5974;42.710;27.258;2023-07-30T09:39:50;99748.88;;;33.64;41.88
12349;BME280;5974;42.710;27.258;2023-07-30T09:42:17;99740.31;;;33.92;42.07
12349;BME280;5974;42.710;27.258;2023-07-30T09:44:47;99735.84;;;33.10;42.38
12349;BME280;5974;42.710;27.258;2023-07-30T09:47:14;99747.28;;;33.19;42.27
12349;BME280;5974;42.710;27.258;2023-07-30T09:49:41;99740.13;;;33.31;43.64
12349;BME280;5974;42.710;27.258;2023-07-30T09:52:08;99731.03;;;33.19;42.23
12349;BME280;5974;42.710;27.258;2023-07-30T09:54:37;99740.59;;;33.21;42.99
12349;BME280;5974;42.710;27.258;2023-07-30T09:57:06;99729.53;;;33.23;43.26
12349;BME280;5974;42.710;27.258;2023-07-30T09:59:33;99730.63;;;33.15;42.56
12349;BME280;5974;42.710;27.258;2023-07-30T10:02:00;99719.84;;;33.40;43.58
12349;BME280;5974;42.710;27.258;2023-07-30T10:04:28;99722.63;;;33.58;43.06
12349;BME280;5974;42.710;27.258;2023-07-30T10:06:59;99722.09;;;33.74;44.28
12349;BME280;5974;42.710;27.258;2023-07-30T10:09:30;99723.38;;;33.41;42.54
12349;BME280;5974;42.710;27.258;2023-07-30T10:12:02;99713.38;;;33.66;42.91
12349;BME280;5974;42.710;27.258;2023-07-30T10:14:30;99708.53;;;33.74;42.30
12349;BME280;5974;42.710;27.258;2023-07-30T10:16:59;99682.13;;;33.32;42.76
12349;BME280;5974;42.710;27.258;2023-07-30T10:19:27;99708.31;;;33.76;43.00
12349;BME280;5974;42.710;27.258;2023-07-30T10:21:58;99713.81;;;33.63;41.18
12349;BME280;5974;42.710;27.258;2023-07-30T10:24:26;99711.63;;;33.22;42.16
12349;BME280;5974;42.710;27.258;2023-07-30T10:26:53;99708.09;;;33.15;42.44
12349;BME280;5974;42.710;27.258;2023-07-30T10:29:24;99711.81;;;33.52;42.82
12349;BME280;5974;42.710;27.258;2023-07-30T10:31:53;99712.41;;;33.54;42.09
12349;BME280;5974;42.710;27.258;2023-07-30T10:34:22;99702.41;;;33.23;40.61
12349;BME280;5974;42.710;27.258;2023-07-30T10:36:52;99712.34;;;32.98;42.24
12349;BME280;5974;42.710;27.258;2023-07-30T10:39:25;99650.91;;;33.23;42.16
12349;BME280;5974;42.710;27.258;2023-07-30T10:41:55;99699.91;;;33.59;41.64
12349;BME280;5974;42.710;27.258;2023-07-30T10:44:26;99701.97;;;33.57;40.45
12349;BME280;5974;42.710;27.258;2023-07-30T10:46:54;99679.19;;;33.34;39.73
12349;BME280;5974;42.710;27.258;2023-07-30T10:49:22;99687.59;;;33.50;42.09
12349;BME280;5974;42.710;27.258;2023-07-30T10:51:51;99689.78;;;33.42;41.47
12349;BME280;5974;42.710;27.258;2023-07-30T10:54:18;99702.00;;;33.51;41.23
12349;BME280;5974;42.710;27.258;2023-07-30T10:56:45;99687.81;;;33.24;41.32
12349;BME280;5974;42.710;27.258;2023-07-30T10:59:13;99691.44;;;33.43;40.69
12349;BME280;5974;42.710;27.258;2023-07-30T11:01:43;99687.72;;;33.37;42.15
12349;BME280;5974;42.710;27.258;2023-07-30T11:04:13;99682.16;;;33.25;41.68
12349;BME280;5974;42.710;27.258;2023-07-30T11:06:45;99675.66;;;33.64;41.82
12349;BME280;5974;42.710;27.258;2023-07-30T11:09:18;99659.78;;;34.11;41.52
12349;BME280;5974;42.710;27.258;2023-07-30T11:11:45;99666.13;;;33.80;39.80
12349;BME280;5974;42.710;27.258;2023-07-30T11:14:15;99663.19;;;33.50;40.59
12349;BME280;5974;42.710;27.258;2023-07-30T11:16:49;99667.88;;;33.12;40.52
12349;BME280;5974;42.710;27.258;2023-07-30T11:19:16;99658.63;;;33.19;42.88
12349;BME280;5974;42.710;27.258;2023-07-30T11:21:47;99652.22;;;33.14;42.58
12349;BME280;5974;42.710;27.258;2023-07-30T11:24:14;99650.50;;;33.19;41.46
12349;BME280;5974;42.710;27.258;2023-07-30T11:26:41;99656.50;;;33.28;43.09
12349;BME280;5974;42.710;27.258;2023-07-30T11:29:15;99644.09;;;33.14;42.27
12349;BME280;5974;42.710;27.258;2023-07-30T11:31:43;99642.03;;;33.41;41.70
12349;BME280;5974;42.710;27.258;2023-07-30T11:34:12;99645.47;;;33.23;42.26
12349;BME280;5974;42.710;27.258;2023-07-30T11:36:40;99631.38;;;33.39;42.70
12349;BME280;5974;42.710;27.258;2023-07-30T11:39:08;99629.91;;;33.43;42.40
12349;BME280;5974;42.710;27.258;2023-07-30T11:41:35;99631.00;;;33.04;42.82
12349;BME280;5974;42.710;27.258;2023-07-30T11:44:04;99630.16;;;33.10;42.61
12349;BME280;5974;42.710;27.258;2023-07-30T11:46:31;99625.81;;;33.34;43.35
12349;BME280;5974;42.710;27.258;2023-07-30T11:49:13;99634.31;;;33.13;43.01
12349;BME280;5974;42.710;27.258;2023-07-30T11:51:40;99624.00;;;32.90;42.78
12349;BME280;5974;42.710;27.258;2023-07-30T11:54:17;99576.84;;;32.73;43.01
12349;BME280;5974;42.710;27.258;2023-07-30T11:56:44;99633.69;;;32.22;44.96
12349;BME280;5974;42.710;27.258;2023-07-30T11:59:11;99630.06;;;32.48;45.66
12349;BME280;5974;42.710;27.258;2023-07-30T12:01:38;99625.84;;;32.58;44.99
12349;BME280;5974;42.710;27.258;2023-07-30T12:04:08;99632.41;;;32.31;45.64
12349;BME280;5974;42.710;27.258;2023-07-30T12:06:41;99618.13;;;32.62;46.33
12349;BME280;5974;42.710;27.258;2023-07-30T12:09:12;99612.91;;;32.67;45.14
12349;BME280;5974;42.710;27.258;2023-07-30T12:11:47;99616.44;;;32.67;45.97
12349;BME280;5974;42.710;27.258;2023-07-30T12:14:14;99603.28;;;32.71;45.61
12349;BME280;5974;42.710;27.258;2023-07-30T12:16:41;99608.38;;;32.54;45.18
12349;BME280;5974;42.710;27.258;2023-07-30T12:19:08;99601.13;;;32.42;45.35
12349;BME280;5974;42.710;27.258;2023-07-30T12:21:35;99598.16;;;32.94;43.96
12349;BME280;5974;42.710;27.258;2023-07-30T12:24:03;99602.78;;;32.87;44.56
12349;BME280;5974;42.710;27.258;2023-07-30T12:26:30;99603.97;;;32.66;45.06
12349;BME280;5974;42.710;27.258;2023-07-30T12:28:58;99592.41;;;32.78;46.01
12349;BME280;5974;42.710;27.258;2023-07-30T12:31:25;99597.75;;;32.46;44.72
12349;BME280;5974;42.710;27.258;2023-07-30T12:33:52;99602.28;;;32.14;44.58
12349;BME280;5974;42.710;27.258;2023-07-30T12:36:19;99597.66;;;32.21;44.36
12349;BME280;5974;42.710;27.258;2023-07-30T12:38:46;99599.81;;;31.93;44.55
12349;BME280;5974;42.710;27.258;2023-07-30T12:41:14;99604.41;;;31.93;44.91
12349;BME280;5974;42.710;27.258;2023-07-30T12:43:42;99609.00;;;31.86;44.72
12349;BME280;5974;42.710;27.258;2023-07-30T12:46:09;99601.72;;;31.86;44.60
12349;BME280;5974;42.710;27.258;2023-07-30T12:48:36;99602.31;;;31.88;45.44
12349;BME280;5974;42.710;27.258;2023-07-30T12:51:03;99610.44;;;31.95;44.72
12349;BME280;5974;42.710;27.258;2023-07-30T12:53:30;99592.78;;;31.86;44.68
12349;BME280;5974;42.710;27.258;2023-07-30T12:55:57;99601.72;;;31.86;44.71
12349;BME280;5974;42.710;27.258;2023-07-30T12:58:25;99596.16;;;31.68;45.20
12349;BME280;5974;42.710;27.258;2023-07-30T13:00:52;99592.81;;;31.40;45.50